Time;durP1;ratioP1;P1;durP2;ratioP2;P2;SDS_P1;SDS_P2;PMS_P1;PMS_P2;Temp;Humidity;BMP_temperature;BMP_pressure;BME280_temperature;BME280_humidity;BME280_pressure;Samples;Min_cycle;Max_cycle;Signal;HPM_P1;HPM_P2
2022/10/24 00:00:59;;;;;;;3.50;1.40;;;;;;;;;;5027976;28;20053;-62
2022/10/24 00:03:25;;;;;;;6.43;2.17;;;;;;;;;;5027409;28;20052;-62
2022/10/24 00:05:51;;;;;;;6.00;1.50;;;;;;;;;;5026649;28;20136;-62
2022/10/24 00:08:17;;;;;;;6.60;1.73;;;;;;;;;;5027895;28;20041;-62
2022/10/24 00:10:44;;;;;;;3.97;1.93;;;;;;;;;;5026499;28;20046;-62
2022/10/24 00:13:11;;;;;;;4.97;1.43;;;;;;;;;;5014226;28;20517;-62
2022/10/24 00:15:37;;;;;;;9.97;1.60;;;;;;;;;;5007907;28;20042;-62
2022/10/24 00:18:03;;;;;;;11.83;1.80;;;;;;;;;;5007942;28;20108;-62
2022/10/24 00:20:29;;;;;;;4.87;1.83;;;;;;;;;;5008121;28;20052;-62
2022/10/24 00:22:55;;;;;;;4.90;1.67;;;;;;;;;;5018703;28;20260;-62
2022/10/24 00:25:21;;;;;;;6.17;1.27;;;;;;;;;;5027785;28;20046;-61
2022/10/24 00:27:47;;;;;;;6.60;1.40;;;;;;;;;;5027976;28;20056;-62
2022/10/24 00:30:13;;;;;;;4.63;1.70;;;;;;;;;;5027521;28;20042;-62
2022/10/24 00:32:39;;;;;;;6.47;1.87;;;;;;;;;;5020525;28;20046;-62
2022/10/24 00:35:06;;;;;;;3.27;1.33;;;;;;;;;;5011369;28;20050;-62
2022/10/24 00:37:32;;;;;;;5.40;1.50;;;;;;;;;;5010196;28;20062;-61
2022/10/24 00:39:58;;;;;;;6.37;1.70;;;;;;;;;;5011668;28;20050;-62
2022/10/24 00:42:24;;;;;;;5.73;1.70;;;;;;;;;;5017825;28;20124;-62
2022/10/24 00:44:52;;;;;;;8.20;1.77;;;;;;;;;;5031156;28;20448;-62
2022/10/24 00:47:23;;;;;;;7.23;1.90;;;;;;;;;;5030580;28;20059;-62
2022/10/24 00:49:51;;;;;;;11.40;2.53;;;;;;;;;;5031479;28;20045;-62
2022/10/24 00:52:22;;;;;;;7.83;2.50;;;;;;;;;;5025917;28;20488;-62
2022/10/24 00:54:48;;;;;;;8.40;2.20;;;;;;;;;;5011344;28;20583;-62
2022/10/24 00:57:18;;;;;;;8.20;2.10;;;;;;;;;;5010938;28;20056;-62
2022/10/24 00:59:45;;;;;;;4.97;2.10;;;;;;;;;;5010758;28;20046;-62
2022/10/24 01:02:11;;;;;;;6.87;2.17;;;;;;;;;;5014527;28;20564;-62
2022/10/24 01:04:37;;;;;;;7.53;2.50;;;;;;;;;;5030788;28;20057;-62
2022/10/24 01:07:03;;;;;;;4.23;2.23;;;;;;;;;;5030734;28;20052;-62
2022/10/24 01:09:58;;;;;;;7.83;3.40;;;;;;;;;;5030148;28;20045;-61
2022/10/24 01:12:43;;;;;;;10.90;2.57;;;;;;;;;;5023675;28;20053;-62
2022/10/24 01:15:12;;;;;;;10.07;2.90;;;;;;;;;;5010799;28;20042;-62
2022/10/24 01:17:44;;;;;;;10.47;2.40;;;;;;;;;;5011477;28;20053;-62
2022/10/24 01:20:13;;;;;;;7.47;2.35;;;;;;;;;;5010722;28;20057;-62
2022/10/24 01:22:52;;;;;;;6.27;2.50;;;;;;;;;;5013201;28;20049;-62
2022/10/24 01:25:28;;;;;;;7.73;2.43;;;;;;;;;;5010570;28;20048;-62
2022/10/24 01:27:57;;;;;;;9.43;2.60;;;;;;;;;;5010695;28;20041;-62
2022/10/24 01:30:23;;;;;;;13.83;2.97;;;;;;;;;;5010257;28;20103;-62
2022/10/24 01:32:49;;;;;;;3.93;2.20;;;;;;;;;;5015500;28;20432;-62
2022/10/24 01:35:15;;;;;;;9.43;2.50;;;;;;;;;;5030268;28;20099;-62
2022/10/24 01:37:44;;;;;;;10.73;3.27;;;;;;;;;;5030096;28;20128;-62
2022/10/24 01:40:31;;;;;;;9.70;2.63;;;;;;;;;;5030098;28;20038;-62
2022/10/24 01:42:59;;;;;;;8.10;2.97;;;;;;;;;;5018695;28;20092;-62
2022/10/24 01:45:28;;;;;;;5.97;2.20;;;;;;;;;;5009444;28;20046;-62
2022/10/24 01:47:56;;;;;;;12.40;3.03;;;;;;;;;;5009153;28;20484;-62
2022/10/24 01:50:24;;;;;;;7.97;2.37;;;;;;;;;;5010002;28;20515;-62
2022/10/24 01:52:50;;;;;;;8.40;2.37;;;;;;;;;;5019013;28;20450;-62
2022/10/24 01:55:16;;;;;;;8.40;2.57;;;;;;;;;;5029422;28;20042;-62
2022/10/24 01:57:42;;;;;;;9.77;2.50;;;;;;;;;;5029955;28;20049;-62
2022/10/24 02:00:14;;;;;;;5.53;2.63;;;;;;;;;;5029978;28;20056;-62
2022/10/24 02:02:44;;;;;;;9.43;2.80;;;;;;;;;;5029961;28;20375;-62
2022/10/24 02:05:40;;;;;;;7.23;2.53;;;;;;;;;;5015934;28;20038;-62
2022/10/24 02:08:10;;;;;;;8.33;2.20;;;;;;;;;;4993407;28;20144;-62
2022/10/24 02:10:46;;;;;;;8.40;2.27;;;;;;;;;;5009843;28;20050;-62
2022/10/24 02:13:16;;;;;;;10.73;3.27;;;;;;;;;;5010016;28;20085;-62
2022/10/24 02:15:44;;;;;;;6.30;2.43;;;;;;;;;;5022750;28;20042;-62
2022/10/24 02:18:11;;;;;;;12.70;2.63;;;;;;;;;;5028970;28;20731;-62
2022/10/24 02:20:41;;;;;;;9.90;2.60;;;;;;;;;;5029737;28;20050;-61
2022/10/24 02:23:12;;;;;;;11.07;2.27;;;;;;;;;;5029625;28;20396;-62
2022/10/24 02:25:42;;;;;;;8.37;2.43;;;;;;;;;;5028009;28;20526;-62
2022/10/24 02:28:14;;;;;;;7.30;2.33;;;;;;;;;;5011237;28;20057;-62
2022/10/24 02:30:44;;;;;;;6.70;2.43;;;;;;;;;;4991843;28;20139;-62
2022/10/24 02:33:11;;;;;;;12.30;1.87;;;;;;;;;;5009539;28;20261;-62
2022/10/24 02:35:38;;;;;;;6.40;2.00;;;;;;;;;;5009171;28;20085;-62
2022/10/24 02:38:11;;;;;;;9.37;1.83;;;;;;;;;;5008957;28;20058;-62
2022/10/24 02:40:37;;;;;;;7.60;1.85;;;;;;;;;;5017467;28;20046;-62
2022/10/24 02:43:04;;;;;;;5.63;1.80;;;;;;;;;;5028858;28;20049;-62
2022/10/24 02:45:30;;;;;;;6.97;1.97;;;;;;;;;;5028621;28;20377;-62
2022/10/24 02:47:58;;;;;;;8.77;2.90;;;;;;;;;;5027521;28;20436;-62
2022/10/24 02:50:25;;;;;;;6.07;1.63;;;;;;;;;;5028348;28;20056;-62
2022/10/24 02:52:51;;;;;;;6.80;2.53;;;;;;;;;;5028885;28;20041;-62
2022/10/24 02:55:17;;;;;;;6.37;2.10;;;;;;;;;;5026739;28;20431;-62
2022/10/24 02:57:43;;;;;;;8.90;2.40;;;;;;;;;;5008339;28;20057;-62
2022/10/24 03:00:10;;;;;;;7.27;2.23;;;;;;;;;;5008502;28;20045;-62
2022/10/24 03:02:36;;;;;;;9.27;2.10;;;;;;;;;;5009194;28;20053;-62
2022/10/24 03:05:02;;;;;;;8.67;2.73;;;;;;;;;;5008971;28;20088;-62
2022/10/24 03:07:28;;;;;;;7.43;2.17;;;;;;;;;;5008719;28;20046;-62
2022/10/24 03:09:54;;;;;;;11.23;3.47;;;;;;;;;;5008616;28;20038;-62
2022/10/24 03:12:20;;;;;;;7.43;2.10;;;;;;;;;;5008600;28;20123;-62
2022/10/24 03:14:46;;;;;;;5.57;2.23;;;;;;;;;;5022348;28;20123;-62
2022/10/24 03:17:12;;;;;;;8.93;2.10;;;;;;;;;;5028427;28;20088;-61
2022/10/24 03:19:38;;;;;;;17.50;3.20;;;;;;;;;;5028455;28;20041;-62
2022/10/24 03:22:04;;;;;;;6.80;2.17;;;;;;;;;;5028782;28;20410;-62
2022/10/24 03:24:30;;;;;;;5.97;2.13;;;;;;;;;;5027865;28;20064;-62
2022/10/24 03:26:56;;;;;;;7.57;1.90;;;;;;;;;;5028431;28;20582;-62
2022/10/24 03:29:22;;;;;;;5.67;2.00;;;;;;;;;;5028518;28;20529;-62
2022/10/24 03:31:48;;;;;;;10.17;2.53;;;;;;;;;;5028005;28;20132;-62
2022/10/24 03:34:14;;;;;;;9.57;2.37;;;;;;;;;;5013438;28;20062;-62
2022/10/24 03:36:40;;;;;;;7.97;2.20;;;;;;;;;;5009185;28;20108;-62
2022/10/24 03:39:06;;;;;;;9.57;2.20;;;;;;;;;;5008298;28;20520;-62
2022/10/24 03:41:32;;;;;;;7.47;1.73;;;;;;;;;;5027099;28;20515;-62
2022/10/24 03:43:58;;;;;;;8.13;1.90;;;;;;;;;;5028259;28;20041;-62
2022/10/24 03:46:24;;;;;;;5.60;2.07;;;;;;;;;;5025947;28;20049;-61
2022/10/24 03:48:50;;;;;;;8.17;1.97;;;;;;;;;;5027285;28;20053;-62
2022/10/24 03:51:16;;;;;;;7.47;1.83;;;;;;;;;;5028059;28;20049;-61
2022/10/24 03:53:42;;;;;;;7.87;2.60;;;;;;;;;;5026111;28;20048;-62
2022/10/24 03:56:08;;;;;;;7.73;2.00;;;;;;;;;;5027659;28;20408;-61
2022/10/24 03:58:34;;;;;;;9.40;2.27;;;;;;;;;;5027902;28;20487;-62
2022/10/24 04:01:00;;;;;;;6.57;1.60;;;;;;;;;;5028129;28;20052;-62
2022/10/24 04:03:27;;;;;;;9.07;2.80;;;;;;;;;;5028424;28;20436;-62
2022/10/24 04:05:53;;;;;;;6.00;1.90;;;;;;;;;;5027675;28;20764;-62
2022/10/24 04:08:19;;;;;;;6.53;2.00;;;;;;;;;;5030498;28;20053;-62
2022/10/24 04:10:46;;;;;;;9.23;2.07;;;;;;;;;;5031967;28;20092;-62
2022/10/24 04:13:12;;;;;;;8.67;1.80;;;;;;;;;;5030187;28;20045;-61
2022/10/24 04:15:38;;;;;;;6.30;2.00;;;;;;;;;;5031573;28;20049;-62
2022/10/24 04:18:04;;;;;;;5.40;1.90;;;;;;;;;;5031328;28;20045;-62
2022/10/24 04:20:30;;;;;;;8.97;2.30;;;;;;;;;;5031662;28;20059;-61
2022/10/24 04:22:56;;;;;;;8.03;2.00;;;;;;;;;;5031729;28;20045;-61
2022/10/24 04:25:22;;;;;;;9.67;2.00;;;;;;;;;;5031541;28;20426;-61
2022/10/24 04:27:48;;;;;;;6.20;1.93;;;;;;;;;;5031029;28;20046;-62
2022/10/24 04:30:14;;;;;;;10.00;2.30;;;;;;;;;;5031588;28;20171;-62
2022/10/24 04:32:40;;;;;;;8.73;2.40;;;;;;;;;;5031477;28;20087;-62
2022/10/24 04:35:07;;;;;;;10.43;2.30;;;;;;;;;;5029262;28;20049;-62
2022/10/24 04:37:33;;;;;;;5.83;2.00;;;;;;;;;;5029069;28;20053;-62
2022/10/24 04:39:59;;;;;;;8.20;2.00;;;;;;;;;;5031156;28;20556;-62
2022/10/24 04:42:25;;;;;;;10.17;2.00;;;;;;;;;;5031347;28;20049;-62
2022/10/24 04:44:51;;;;;;;5.67;1.70;;;;;;;;;;5028211;28;20050;-61
2022/10/24 04:47:17;;;;;;;4.33;1.73;;;;;;;;;;5030653;28;20136;-62
2022/10/24 04:49:43;;;;;;;7.03;1.90;;;;;;;;;;5031195;28;20045;-61
2022/10/24 04:52:09;;;;;;;6.13;1.73;;;;;;;;;;5030151;28;20401;-62
2022/10/24 04:54:36;;;;;;;9.77;2.23;;;;;;;;;;5031168;28;20042;-62
2022/10/24 04:57:02;;;;;;;8.00;2.23;;;;;;;;;;5028596;28;20566;-61
2022/10/24 04:59:28;;;;;;;8.33;1.67;;;;;;;;;;5031040;28;20472;-61
2022/10/24 05:01:54;;;;;;;14.70;2.57;;;;;;;;;;5030098;28;20482;-62
2022/10/24 05:04:20;;;;;;;4.80;1.70;;;;;;;;;;5029325;28;20049;-62
2022/10/24 05:06:46;;;;;;;7.70;1.60;;;;;;;;;;5030734;28;20324;-61
2022/10/24 05:09:13;;;;;;;10.70;2.00;;;;;;;;;;5029519;28;20136;-62
2022/10/24 05:11:39;;;;;;;5.60;1.40;;;;;;;;;;5030989;28;20480;-62
2022/10/24 05:14:05;;;;;;;9.20;1.93;;;;;;;;;;5027823;28;20454;-62
2022/10/24 05:16:31;;;;;;;8.20;1.80;;;;;;;;;;5030090;28;20408;-62
2022/10/24 05:18:57;;;;;;;6.33;1.70;;;;;;;;;;5029168;28;20048;-62
2022/10/24 05:21:23;;;;;;;6.80;1.50;;;;;;;;;;5030739;28;20049;-61
2022/10/24 05:23:49;;;;;;;4.93;1.33;;;;;;;;;;5030581;28;20042;-61
2022/10/24 05:26:15;;;;;;;5.97;1.80;;;;;;;;;;5030500;28;20053;-62
2022/10/24 05:28:41;;;;;;;3.27;1.00;;;;;;;;;;5028325;28;20045;-62
2022/10/24 05:31:07;;;;;;;9.90;2.10;;;;;;;;;;5030371;28;20518;-62
2022/10/24 05:33:33;;;;;;;7.60;1.43;;;;;;;;;;5030060;28;20119;-62
2022/10/24 05:35:59;;;;;;;8.43;1.80;;;;;;;;;;5027417;28;20076;-61
2022/10/24 05:38:25;;;;;;;8.53;1.47;;;;;;;;;;5010283;28;20042;-61
2022/10/24 05:40:52;;;;;;;3.60;1.40;;;;;;;;;;5010069;28;20046;-62
2022/10/24 05:43:18;;;;;;;6.67;1.70;;;;;;;;;;5009211;28;20053;-62
2022/10/24 05:45:46;;;;;;;6.50;2.03;;;;;;;;;;5011397;28;20148;-62
2022/10/24 05:48:12;;;;;;;6.13;1.10;;;;;;;;;;5010343;28;20567;-62
2022/10/24 05:50:38;;;;;;;5.77;1.73;;;;;;;;;;5009861;28;20104;-62
2022/10/24 05:53:04;;;;;;;7.23;1.60;;;;;;;;;;5010070;28;20449;-62
2022/10/24 05:55:32;;;;;;;6.43;1.60;;;;;;;;;;5010475;28;20045;-62
2022/10/24 05:57:58;;;;;;;8.07;1.73;;;;;;;;;;5010090;28;20412;-62
2022/10/24 06:00:24;;;;;;;10.40;1.83;;;;;;;;;;5010800;28;20050;-62
2022/10/24 06:02:50;;;;;;;7.03;1.70;;;;;;;;;;5010079;28;20111;-62
2022/10/24 06:05:16;;;;;;;7.17;1.50;;;;;;;;;;5010224;28;20096;-61
2022/10/24 06:07:42;;;;;;;8.07;1.23;;;;;;;;;;5010203;28;20073;-62
2022/10/24 06:10:09;;;;;;;6.77;1.40;;;;;;;;;;5010539;28;20052;-62
2022/10/24 06:12:35;;;;;;;6.20;1.33;;;;;;;;;;5010167;28;20053;-62
2022/10/24 06:15:01;;;;;;;6.97;1.70;;;;;;;;;;5009971;28;20041;-62
2022/10/24 06:17:28;;;;;;;9.30;1.77;;;;;;;;;;5009880;28;20050;-62
2022/10/24 06:19:54;;;;;;;5.40;1.20;;;;;;;;;;5010509;28;20054;-62
2022/10/24 06:22:23;;;;;;;6.50;1.53;;;;;;;;;;5009688;28;20064;-62
2022/10/24 06:24:49;;;;;;;9.50;1.30;;;;;;;;;;5009641;28;20054;-62
2022/10/24 06:27:15;;;;;;;6.33;1.27;;;;;;;;;;5009778;28;20057;-62
2022/10/24 06:29:41;;;;;;;5.07;1.60;;;;;;;;;;5008944;28;20052;-61
2022/10/24 06:32:07;;;;;;;5.43;1.10;;;;;;;;;;5009238;28;20424;-61
2022/10/24 06:34:34;;;;;;;7.67;1.90;;;;;;;;;;5008857;28;20570;-61
2022/10/24 06:37:00;;;;;;;7.03;1.20;;;;;;;;;;5009109;28;20464;-62
2022/10/24 06:39:26;;;;;;;7.93;1.53;;;;;;;;;;5008822;28;20088;-62
2022/10/24 06:41:52;;;;;;;11.83;1.93;;;;;;;;;;5009289;28;20045;-61
2022/10/24 06:44:18;;;;;;;7.80;1.80;;;;;;;;;;5010099;28;20046;-61
2022/10/24 06:46:44;;;;;;;7.77;1.50;;;;;;;;;;5008801;28;20056;-61
2022/10/24 06:49:12;;;;;;;6.83;1.40;;;;;;;;;;5008854;28;20046;-61
2022/10/24 06:51:38;;;;;;;8.80;2.50;;;;;;;;;;5008884;28;20116;-62
2022/10/24 06:54:04;;;;;;;5.33;1.40;;;;;;;;;;5008390;28;20140;-62
2022/10/24 06:56:30;;;;;;;10.50;1.97;;;;;;;;;;5008717;28;20626;-62
2022/10/24 06:58:56;;;;;;;7.60;1.57;;;;;;;;;;5017386;28;20045;-62
2022/10/24 07:01:23;;;;;;;7.00;1.30;;;;;;;;;;5008718;28;20613;-62
2022/10/24 07:03:50;;;;;;;5.97;1.70;;;;;;;;;;5008373;28;20057;-61
2022/10/24 07:06:20;;;;;;;7.67;1.60;;;;;;;;;;5008618;28;20408;-61
2022/10/24 07:08:46;;;;;;;11.40;1.70;;;;;;;;;;5009627;28;20137;-61
2022/10/24 07:11:12;;;;;;;5.33;1.20;;;;;;;;;;5008595;28;20132;-62
2022/10/24 07:13:38;;;;;;;10.67;1.43;;;;;;;;;;5008550;28;20235;-62
2022/10/24 07:16:05;;;;;;;8.13;1.70;;;;;;;;;;5022952;28;20073;-62
2022/10/24 07:18:31;;;;;;;5.53;1.40;;;;;;;;;;5026065;28;20042;-61
2022/10/24 07:21:04;;;;;;;7.30;1.87;;;;;;;;;;5012222;28;20042;-61
2022/10/24 07:23:30;;;;;;;;;;;;;;;;;;5027835;28;20073;-61
2022/10/24 07:26:01;;;;;;;10.50;1.67;;;;;;;;;;5014276;28;20431;-61
2022/10/24 07:28:27;;;;;;;7.60;1.43;;;;;;;;;;5008137;28;20050;-62
2022/10/24 07:30:53;;;;;;;9.57;1.60;;;;;;;;;;5015363;28;20052;-62
2022/10/24 07:33:19;;;;;;;6.13;2.63;;;;;;;;;;5014839;28;20499;-61
2022/10/24 07:35:45;;;;;;;7.67;2.17;;;;;;;;;;5013557;28;20141;-61
2022/10/24 07:38:11;;;;;;;6.43;1.33;;;;;;;;;;5013537;28;20081;-62
2022/10/24 07:40:37;;;;;;;5.20;1.47;;;;;;;;;;5011775;28;20085;-61
2022/10/24 07:43:03;;;;;;;7.60;1.33;;;;;;;;;;5025788;28;20042;-62
2022/10/24 07:45:31;;;;;;;9.13;1.80;;;;;;;;;;5014827;28;20041;-62
2022/10/24 07:47:58;;;;;;;7.80;1.77;;;;;;;;;;5013579;28;20128;-61
2022/10/24 07:50:24;;;;;;;6.27;1.47;;;;;;;;;;5014331;28;20512;-61
2022/10/24 07:52:50;;;;;;;5.73;1.40;;;;;;;;;;5014492;28;20096;-61
2022/10/24 07:55:16;;;;;;;6.70;1.53;;;;;;;;;;5014407;28;20073;-61
2022/10/24 07:57:42;;;;;;;7.37;1.33;;;;;;;;;;5014372;28;20045;-62
2022/10/24 08:00:08;;;;;;;7.87;2.33;;;;;;;;;;5014221;28;20046;-62
2022/10/24 08:02:34;;;;;;;5.13;1.27;;;;;;;;;;5013966;28;20339;-61
2022/10/24 08:05:00;;;;;;;7.63;1.60;;;;;;;;;;5014344;28;20049;-62
2022/10/24 08:07:28;;;;;;;9.43;1.60;;;;;;;;;;5012966;28;20045;-61
2022/10/24 08:09:54;;;;;;;7.33;1.57;;;;;;;;;;5014406;28;20427;-61
2022/10/24 08:12:20;;;;;;;4.17;1.67;;;;;;;;;;5014201;28;20042;-62
2022/10/24 08:14:47;;;;;;;12.70;1.40;;;;;;;;;;5014365;28;20045;-62
2022/10/24 08:17:13;;;;;;;6.53;1.40;;;;;;;;;;5013845;28;20053;-62
2022/10/24 08:19:40;;;;;;;8.80;1.80;;;;;;;;;;5014089;28;20046;-62
2022/10/24 08:22:08;;;;;;;6.43;2.20;;;;;;;;;;5014032;28;20120;-62
2022/10/24 08:24:34;;;;;;;5.80;1.83;;;;;;;;;;5014460;28;20046;-61
2022/10/24 08:27:00;;;;;;;9.57;1.60;;;;;;;;;;5013914;28;20048;-61
2022/10/24 08:29:26;;;;;;;5.93;1.73;;;;;;;;;;5014058;28;20140;-62
2022/10/24 08:31:53;;;;;;;5.67;1.73;;;;;;;;;;5013691;28;20077;-62
2022/10/24 08:34:19;;;;;;;12.50;2.30;;;;;;;;;;5013758;28;20551;-62
2022/10/24 08:36:46;;;;;;;6.37;1.70;;;;;;;;;;5014052;28;20042;-62
2022/10/24 08:39:12;;;;;;;6.93;1.83;;;;;;;;;;5013404;28;20050;-62
2022/10/24 08:41:40;;;;;;;7.50;2.20;;;;;;;;;;5014231;28;20050;-62
2022/10/24 08:44:26;;;;;;;6.13;1.80;;;;;;;;;;5013971;28;20046;-62
2022/10/24 08:46:56;;;;;;;6.53;1.57;;;;;;;;;;4995762;28;20809;-62
2022/10/24 08:49:28;;;;;;;9.43;2.13;;;;;;;;;;5013640;28;20084;-62
2022/10/24 08:51:56;;;;;;;13.30;2.17;;;;;;;;;;5013809;28;20042;-62
2022/10/24 08:54:25;;;;;;;6.67;1.50;;;;;;;;;;5011660;28;20042;-62
2022/10/24 08:56:54;;;;;;;7.53;1.53;;;;;;;;;;5010628;28;20548;-62
2022/10/24 08:59:20;;;;;;;9.03;2.10;;;;;;;;;;5010104;28;20136;-62
2022/10/24 09:01:50;;;;;;;7.80;1.57;;;;;;;;;;5010743;28;20046;-62
2022/10/24 09:04:18;;;;;;;10.67;1.70;;;;;;;;;;5010434;28;20049;-62
2022/10/24 09:06:45;;;;;;;8.00;2.00;;;;;;;;;;5010495;28;20045;-62
2022/10/24 09:09:16;;;;;;;10.00;1.70;;;;;;;;;;5010310;28;20042;-62
2022/10/24 09:11:48;;;;;;;7.13;1.60;;;;;;;;;;5010563;28;20042;-62
2022/10/24 09:14:15;;;;;;;12.57;2.53;;;;;;;;;;5010443;28;20403;-62
2022/10/24 09:16:42;;;;;;;6.60;1.30;;;;;;;;;;5010241;28;20049;-62
2022/10/24 09:19:16;;;;;;;8.50;1.43;;;;;;;;;;5010319;28;20060;-62
2022/10/24 09:21:42;;;;;;;9.60;1.53;;;;;;;;;;5009851;28;20053;-62
2022/10/24 09:24:17;;;;;;;6.97;1.70;;;;;;;;;;5010179;28;20054;-62
2022/10/24 09:26:44;;;;;;;9.63;2.00;;;;;;;;;;5010156;28;20072;-62
2022/10/24 09:29:10;;;;;;;9.23;1.20;;;;;;;;;;5010316;28;20423;-62
2022/10/24 09:31:37;;;;;;;5.97;1.40;;;;;;;;;;5010202;28;20504;-62
2022/10/24 09:34:03;;;;;;;7.37;2.27;;;;;;;;;;5009218;28;20069;-62
2022/10/24 09:36:29;;;;;;;7.03;1.30;;;;;;;;;;5009973;28;20069;-62
2022/10/24 09:38:55;;;;;;;7.30;1.60;;;;;;;;;;5010135;28;20058;-62
2022/10/24 09:41:27;;;;;;;12.20;1.73;;;;;;;;;;5009359;28;20370;-62
2022/10/24 09:43:57;;;;;;;6.97;1.90;;;;;;;;;;5009912;28;20042;-62
2022/10/24 09:46:25;;;;;;;6.00;1.80;;;;;;;;;;5009451;28;20085;-62
2022/10/24 09:48:58;;;;;;;8.17;1.83;;;;;;;;;;5009871;28;20057;-62
2022/10/24 09:51:24;;;;;;;11.88;1.42;;;;;;;;;;5009612;28;20053;-62
2022/10/24 09:54:02;;;;;;;6.60;1.20;;;;;;;;;;5009308;28;20064;-61
2022/10/24 09:56:39;;;;;;;7.80;2.40;;;;;;;;;;5009808;28;20091;-62
2022/10/24 09:59:18;;;;;;;4.50;1.27;;;;;;;;;;5009429;28;20058;-62
2022/10/24 10:01:44;;;;;;;6.77;1.80;;;;;;;;;;5009899;28;21045;-62
2022/10/24 10:04:19;;;;;;;5.47;1.43;;;;;;;;;;5009288;28;20053;-62
2022/10/24 10:06:47;;;;;;;5.33;0.90;;;;;;;;;;5008839;28;20125;-62
2022/10/24 10:09:15;;;;;;;12.20;1.10;;;;;;;;;;5009556;28;20042;-62
2022/10/24 10:11:41;;;;;;;5.33;0.90;;;;;;;;;;5009535;28;20451;-62
2022/10/24 10:14:19;;;;;;;6.00;1.30;;;;;;;;;;5008091;28;20064;-62
2022/10/24 10:16:45;;;;;;;7.10;1.17;;;;;;;;;;5009355;28;20042;-62
2022/10/24 10:19:14;;;;;;;3.60;0.90;;;;;;;;;;5008848;28;20176;-62
2022/10/24 10:21:59;;;;;;;5.00;1.10;;;;;;;;;;5009619;28;20100;-62
2022/10/24 10:24:34;;;;;;;3.90;1.20;;;;;;;;;;5009643;28;20065;-62
2022/10/24 10:27:00;;;;;;;8.00;1.60;;;;;;;;;;5008969;28;20049;-62
2022/10/24 10:29:27;;;;;;;8.00;1.37;;;;;;;;;;5009226;28;20614;-62
2022/10/24 10:31:59;;;;;;;5.67;1.00;;;;;;;;;;5008668;28;20069;-62
2022/10/24 10:34:36;;;;;;;11.68;1.40;;;;;;;;;;5007711;28;20137;-62
2022/10/24 10:37:15;;;;;;;9.07;2.10;;;;;;;;;;5008702;28;20054;-62
2022/10/24 10:39:54;;;;;;;4.57;0.87;;;;;;;;;;5009008;28;20050;-62
2022/10/24 10:42:29;;;;;;;6.47;1.27;;;;;;;;;;5008685;28;20045;-63
2022/10/24 10:44:58;;;;;;;6.43;1.13;;;;;;;;;;5008420;28;20512;-63
2022/10/24 10:47:34;;;;;;;5.20;1.20;;;;;;;;;;5008706;28;20050;-62
2022/10/24 10:50:01;;;;;;;5.53;1.37;;;;;;;;;;5008572;28;20045;-63
2022/10/24 10:52:32;;;;;;;8.40;2.07;;;;;;;;;;5009169;28;20427;-63
2022/10/24 10:55:10;;;;;;;6.00;1.20;;;;;;;;;;5008925;28;20050;-62
2022/10/24 10:57:45;;;;;;;8.33;1.70;;;;;;;;;;5008321;28;20054;-62
2022/10/24 11:00:14;;;;;;;4.43;1.40;;;;;;;;;;5008656;28;20104;-63
2022/10/24 11:02:49;;;;;;;6.37;1.30;;;;;;;;;;5008614;28;20262;-62
2022/10/24 11:05:34;;;;;;;5.93;1.33;;;;;;;;;;5008297;28;20544;-62
2022/10/24 11:08:24;;;;;;;6.00;1.30;;;;;;;;;;5008630;28;20050;-62
2022/10/24 11:10:52;;;;;;;4.93;1.20;;;;;;;;;;5008643;28;20135;-62
2022/10/24 11:13:25;;;;;;;7.33;1.50;;;;;;;;;;5007889;28;20050;-63
2022/10/24 11:15:54;;;;;;;6.47;1.35;;;;;;;;;;5008430;28;20045;-62
2022/10/24 11:18:28;;;;;;;6.70;2.03;;;;;;;;;;5007379;28;20046;-63
2022/10/24 11:21:00;;;;;;;11.63;1.53;;;;;;;;;;5008093;28;20054;-63
2022/10/24 11:23:29;;;;;;;9.83;1.50;;;;;;;;;;5007644;28;20050;-62
2022/10/24 11:25:59;;;;;;;4.33;1.03;;;;;;;;;;5008018;28;20057;-62
2022/10/24 11:28:34;;;;;;;5.13;1.03;;;;;;;;;;5008021;28;20101;-62
2022/10/24 11:31:00;;;;;;;6.83;1.77;;;;;;;;;;5008142;28;20054;-62
2022/10/24 11:33:28;;;;;;;9.90;1.73;;;;;;;;;;5007854;28;20058;-62
2022/10/24 11:36:15;;;;;;;5.27;1.07;;;;;;;;;;5007490;28;20321;-62
2022/10/24 11:38:53;;;;;;;5.47;1.27;;;;;;;;;;4968017;28;20065;-62
2022/10/24 11:41:25;;;;;;;8.90;2.00;;;;;;;;;;5008230;28;20081;-62
2022/10/24 11:43:54;;;;;;;9.87;2.77;;;;;;;;;;5008226;28;20045;-62
2022/10/24 11:46:23;;;;;;;8.10;1.50;;;;;;;;;;5008019;28;20104;-62
2022/10/24 11:49:11;;;;;;;3.00;1.00;;;;;;;;;;5007820;28;20084;-63
2022/10/24 11:51:40;;;;;;;6.57;0.97;;;;;;;;;;5007167;28;20053;-62
2022/10/24 11:54:24;;;;;;;6.57;1.77;;;;;;;;;;5007784;28;20049;-62
2022/10/24 11:56:56;;;;;;;5.67;1.00;;;;;;;;;;5008078;28;20092;-63
2022/10/24 11:59:25;;;;;;;5.97;1.70;;;;;;;;;;5007599;28;20049;-62
2022/10/24 12:01:54;;;;;;;4.47;1.10;;;;;;;;;;5007978;28;20143;-62
2022/10/24 12:04:20;;;;;;;4.40;0.90;;;;;;;;;;5007599;28;20054;-62
2022/10/24 12:06:55;;;;;;;6.47;1.30;;;;;;;;;;5006490;28;20056;-62
2022/10/24 12:09:40;;;;;;;7.80;1.27;;;;;;;;;;5007580;28;20500;-62
2022/10/24 12:12:25;;;;;;;6.60;1.63;;;;;;;;;;5007542;28;21336;-62
2022/10/24 12:15:10;;;;;;;3.70;0.97;;;;;;;;;;5007851;28;20049;-63
2022/10/24 12:17:36;;;;;;;5.97;0.90;;;;;;;;;;5007771;28;20078;-62
2022/10/24 12:20:05;;;;;;;7.00;1.40;;;;;;;;;;5007863;28;20086;-62
2022/10/24 12:22:35;;;;;;;9.23;1.70;;;;;;;;;;5007695;28;20412;-63
2022/10/24 12:25:20;;;;;;;7.07;1.30;;;;;;;;;;5007709;28;20046;-62
2022/10/24 12:27:52;;;;;;;3.80;1.17;;;;;;;;;;5008025;28;20376;-63
2022/10/24 12:30:28;;;;;;;8.53;1.40;;;;;;;;;;5011227;28;20100;-63
2022/10/24 12:33:06;;;;;;;5.30;1.13;;;;;;;;;;5011357;28;20058;-62
2022/10/24 12:35:36;;;;;;;6.03;1.10;;;;;;;;;;5011238;28;20110;-63
2022/10/24 12:38:13;;;;;;;5.00;1.03;;;;;;;;;;5010538;28;20057;-63
2022/10/24 12:40:45;;;;;;;9.43;1.27;;;;;;;;;;5011251;28;20060;-63
2022/10/24 12:43:14;;;;;;;6.45;1.00;;;;;;;;;;5011288;28;20427;-63
2022/10/24 12:45:40;;;;;;;4.47;1.23;;;;;;;;;;5010846;28;20041;-63
2022/10/24 12:48:14;;;;;;;3.57;1.07;;;;;;;;;;5010496;28;20042;-63
2022/10/24 12:50:40;;;;;;;6.27;1.20;;;;;;;;;;5010904;28;20041;-63
2022/10/24 12:53:16;;;;;;;6.27;1.17;;;;;;;;;;5010897;28;20064;-63
2022/10/24 12:55:43;;;;;;;12.50;1.70;;;;;;;;;;5011023;28;20412;-62
2022/10/24 12:58:27;;;;;;;8.23;1.30;;;;;;;;;;5010570;28;20054;-63
2022/10/24 13:00:58;;;;;;;3.93;0.90;;;;;;;;;;5010414;28;20096;-63
2022/10/24 13:03:43;;;;;;;3.23;0.93;;;;;;;;;;5010599;28;20050;-62
2022/10/24 13:06:14;;;;;;;3.40;0.77;;;;;;;;;;5010707;28;20433;-62
2022/10/24 13:08:46;;;;;;;6.00;1.27;;;;;;;;;;5010691;28;20046;-62
2022/10/24 13:11:15;;;;;;;5.63;1.17;;;;;;;;;;5010310;28;20045;-63
2022/10/24 13:13:44;;;;;;;6.67;0.90;;;;;;;;;;5010181;28;20284;-62
2022/10/24 13:16:22;;;;;;;10.33;1.10;;;;;;;;;;5010674;28;20042;-62
2022/10/24 13:18:48;;;;;;;5.77;0.90;;;;;;;;;;5010492;28;20053;-63
2022/10/24 13:21:17;;;;;;;7.43;1.00;;;;;;;;;;5010363;28;20058;-62
2022/10/24 13:23:47;;;;;;;5.07;1.50;;;;;;;;;;5010380;28;20487;-62
2022/10/24 13:26:32;;;;;;;4.23;1.10;;;;;;;;;;5009460;28;20042;-62
2022/10/24 13:28:58;;;;;;;6.23;1.00;;;;;;;;;;5010268;28;20114;-63
2022/10/24 13:31:24;;;;;;;2.87;0.93;;;;;;;;;;5010311;28;20156;-63
2022/10/24 13:33:52;;;;;;;7.23;1.00;;;;;;;;;;5009968;28;20057;-62
2022/10/24 13:36:25;;;;;;;3.80;1.90;;;;;;;;;;5010143;28;20057;-62
2022/10/24 13:39:02;;;;;;;3.57;0.90;;;;;;;;;;5009696;28;20049;-63
2022/10/24 13:41:48;;;;;;;7.73;1.00;;;;;;;;;;5008996;28;20046;-63
2022/10/24 13:44:24;;;;;;;3.17;0.70;;;;;;;;;;5009860;28;20088;-63
2022/10/24 13:46:56;;;;;;;4.07;0.97;;;;;;;;;;5009777;28;20056;-62
2022/10/24 13:49:30;;;;;;;3.20;0.80;;;;;;;;;;5009604;28;20117;-62
2022/10/24 13:51:59;;;;;;;3.53;0.90;;;;;;;;;;5009450;28;20049;-62
2022/10/24 13:54:28;;;;;;;5.13;1.17;;;;;;;;;;5009720;28;20045;-63
2022/10/24 13:56:54;;;;;;;5.90;0.83;;;;;;;;;;5009630;28;20042;-62
2022/10/24 13:59:35;;;;;;;2.63;1.20;;;;;;;;;;5009672;28;20124;-62
2022/10/24 14:02:03;;;;;;;4.83;1.07;;;;;;;;;;5009733;28;20049;-62
2022/10/24 14:04:30;;;;;;;6.67;1.17;;;;;;;;;;5008924;28;20133;-62
2022/10/24 14:07:00;;;;;;;7.03;1.27;;;;;;;;;;5009671;28;20046;-62
2022/10/24 14:09:26;;;;;;;4.03;1.27;;;;;;;;;;5009429;28;20421;-62
2022/10/24 14:11:55;;;;;;;4.63;1.10;;;;;;;;;;5008218;28;20053;-62
2022/10/24 14:14:38;;;;;;;5.50;1.20;;;;;;;;;;5009354;28;20045;-62
2022/10/24 14:17:05;;;;;;;;;;;;;;;;;;5009371;28;20053;-62
2022/10/24 14:19:32;;;;;;;8.37;1.23;;;;;;;;;;5009254;28;19925;-62
2022/10/24 14:21:59;;;;;;;6.50;1.57;;;;;;;;;;5009276;28;20046;-62
2022/10/24 14:24:25;;;;;;;5.40;1.30;;;;;;;;;;5007787;28;20492;-62
2022/10/24 14:26:52;;;;;;;2.93;0.93;;;;;;;;;;5007671;28;20363;-62
2022/10/24 14:29:32;;;;;;;4.83;1.20;;;;;;;;;;5009175;28;20058;-62
2022/10/24 14:31:58;;;;;;;7.60;1.50;;;;;;;;;;5007772;28;20054;-62
2022/10/24 14:34:25;;;;;;;7.97;1.83;;;;;;;;;;5009004;28;20369;-62
2022/10/24 14:36:51;;;;;;;5.93;1.30;;;;;;;;;;5007674;28;20073;-63
2022/10/24 14:39:22;;;;;;;8.07;1.27;;;;;;;;;;5008311;28;20579;-62
2022/10/24 14:41:49;;;;;;;5.10;1.20;;;;;;;;;;5009129;28;20096;-62
2022/10/24 14:44:16;;;;;;;11.07;1.60;;;;;;;;;;5008939;28;20049;-62
2022/10/24 14:46:43;;;;;;;6.50;1.10;;;;;;;;;;5008899;28;20061;-62
2022/10/24 14:49:21;;;;;;;6.33;1.00;;;;;;;;;;5008264;28;20046;-62
2022/10/24 14:51:49;;;;;;;3.80;1.00;;;;;;;;;;5008850;28;20050;-62
2022/10/24 14:54:17;;;;;;;5.90;0.93;;;;;;;;;;5008894;28;20045;-62